Aviation Digital Data Service (ADDS)

Output produced by METARs form (2314 UTC 18 August 2019)
found at http://www.aviationweather.gov/metar/data/
 
METAR text: EDDN 182250Z 18003KT CAVOK 18/17 Q1013
Conditions at: EDDN (NUERNBERG , DE) observed 2250 UTC 18 August 2019
Temperature: 18.0°C (64°F)
Dewpoint: 17.0°C (63°F) [RH = 94%]
Pressure (altimeter): 29.91 inches Hg (1013.0 mb)
Winds: from the S (180 degrees) at 3 MPH (3 knots; 1.5 m/s)
Visibility: 6 or more miles (10+ km)
Ceiling: ceiling and visibility are OK
Clouds: unknown
Weather: no significant weather observed at this time

METAR text: EDDN 182220Z VRB02KT CAVOK 18/17 Q1013
Conditions at: EDDN (NUERNBERG , DE) observed 2220 UTC 18 August 2019
Temperature: 18.0°C (64°F)
Dewpoint: 17.0°C (63°F) [RH = 94%]
Pressure (altimeter): 29.91 inches Hg (1013.0 mb)
Winds: variable direction winds at 2 MPH (2 knots; 1.0 m/s)
Visibility: 6 or more miles (10+ km)
Ceiling: ceiling and visibility are OK
Clouds: unknown
Weather: no significant weather observed at this time

METAR text: EDDN 182150Z 13004KT CAVOK 18/17 Q1012
Conditions at: EDDN (NUERNBERG , DE) observed 2150 UTC 18 August 2019
Temperature: 18.0°C (64°F)
Dewpoint: 17.0°C (63°F) [RH = 94%]
Pressure (altimeter): 29.88 inches Hg (1012.0 mb)
Winds: from the SE (130 degrees) at 5 MPH (4 knots; 2.1 m/s)
Visibility: 6 or more miles (10+ km)
Ceiling: ceiling and visibility are OK
Clouds: unknown
Weather: no significant weather observed at this time

METAR text: EDDN 182120Z 36002KT CAVOK 18/17 Q1012
Conditions at: EDDN (NUERNBERG , DE) observed 2120 UTC 18 August 2019
Temperature: 18.0°C (64°F)
Dewpoint: 17.0°C (63°F) [RH = 94%]
Pressure (altimeter): 29.88 inches Hg (1012.0 mb)
Winds: from the N (360 degrees) at 2 MPH (2 knots; 1.0 m/s)
Visibility: 6 or more miles (10+ km)
Ceiling: ceiling and visibility are OK
Clouds: unknown
Weather: no significant weather observed at this time

METAR text: EDDN 182050Z 35004KT CAVOK 19/17 Q1012
Conditions at: EDDN (NUERNBERG , DE) observed 2050 UTC 18 August 2019
Temperature: 19.0°C (66°F)
Dewpoint: 17.0°C (63°F) [RH = 88%]
Pressure (altimeter): 29.88 inches Hg (1012.0 mb)
Winds: from the N (350 degrees) at 5 MPH (4 knots; 2.1 m/s)
Visibility: 6 or more miles (10+ km)
Ceiling: ceiling and visibility are OK
Clouds: unknown
Weather: no significant weather observed at this time

METAR text: EDDN 182020Z 32005KT 290V350 CAVOK 20/18 Q1012
Conditions at: EDDN (NUERNBERG , DE) observed 2020 UTC 18 August 2019
Temperature: 20.0°C (68°F)
Dewpoint: 18.0°C (64°F) [RH = 88%]
Pressure (altimeter): 29.88 inches Hg (1012.0 mb)
Winds: from the NW (320 degrees) at 6 MPH (5 knots; 2.6 m/s)
Visibility: 6 or more miles (10+ km)
Ceiling: ceiling and visibility are OK
Clouds: unknown
Weather: no significant weather observed at this time

METAR text: EDDN 181950Z 05003KT 360V090 9999 FEW047 19/18 Q1011 BECMG 25005KT
Conditions at: EDDN (NUERNBERG , DE) observed 1950 UTC 18 August 2019
Temperature: 19.0°C (66°F)
Dewpoint: 18.0°C (64°F) [RH = 94%]
Pressure (altimeter): 29.85 inches Hg (1011.0 mb)
Winds: from the NE (50 degrees) at 3 MPH (3 knots; 1.5 m/s)
Visibility: 6 or more miles (10+ km)
Ceiling: at least 12,000 feet AGL
Clouds: few clouds at 4700 feet AGL
Weather: no significant weather observed at this time

METAR text: EDDN 181920Z VRB02KT 9999 SCT047CB 19/19 Q1011 RETSRA BECMG 25005KT
Conditions at: EDDN (NUERNBERG , DE) observed 1920 UTC 18 August 2019
Temperature: 19.0°C (66°F)
Dewpoint: 19.0°C (66°F) [RH = 100%]
Pressure (altimeter): 29.85 inches Hg (1011.0 mb)
Winds: variable direction winds at 2 MPH (2 knots; 1.0 m/s)
Visibility: 6 or more miles (10+ km)
Ceiling: at least 12,000 feet AGL
Clouds: scattered clouds at 4700 feet AGL
Weather: no significant weather observed at this time

METAR text: EDDN 181850Z 11004KT 080V170 9999 -SHRA FEW050CB 19/18 Q1010 TEMPO 25020G40KT TSRA
Conditions at: EDDN (NUERNBERG , DE) observed 1850 UTC 18 August 2019
Temperature: 19.0°C (66°F)
Dewpoint: 18.0°C (64°F) [RH = 94%]
Pressure (altimeter): 29.82 inches Hg (1010.0 mb)
Winds: from the ESE (110 degrees) at 5 MPH (4 knots; 2.1 m/s)
Visibility: 6 or more miles (10+ km)
Ceiling: at least 12,000 feet AGL
Clouds: few clouds at 5000 feet AGL
Weather: -SHRA  (light rain showers)

METAR text: EDDN 181820Z VRB02KT 9999 FEW050CB 20/18 Q1010 TEMPO 25015G25KT SHRA
Conditions at: EDDN (NUERNBERG , DE) observed 1820 UTC 18 August 2019
Temperature: 20.0°C (68°F)
Dewpoint: 18.0°C (64°F) [RH = 88%]
Pressure (altimeter): 29.82 inches Hg (1010.0 mb)
Winds: variable direction winds at 2 MPH (2 knots; 1.0 m/s)
Visibility: 6 or more miles (10+ km)
Ceiling: at least 12,000 feet AGL
Clouds: few clouds at 5000 feet AGL
Weather: no significant weather observed at this time

METAR text: EDDN 181750Z 13009KT 110V180 9999 SCT050CB 20/17 Q1010 RETS NOSIG
Conditions at: EDDN (NUERNBERG , DE) observed 1750 UTC 18 August 2019
Temperature: 20.0°C (68°F)
Dewpoint: 17.0°C (63°F) [RH = 83%]
Pressure (altimeter): 29.82 inches Hg (1010.0 mb)
Winds: from the SE (130 degrees) at 10 MPH (9 knots; 4.6 m/s)
Visibility: 6 or more miles (10+ km)
Ceiling: at least 12,000 feet AGL
Clouds: scattered clouds at 5000 feet AGL
Weather: no significant weather observed at this time

METAR text: EDDN 181720Z 20010KT 150V220 9999 -TSRA BKN050CB 23/19 Q1010 RESHRA BECMG NSW
Conditions at: EDDN (NUERNBERG , DE) observed 1720 UTC 18 August 2019
Temperature: 23.0°C (73°F)
Dewpoint: 19.0°C (66°F) [RH = 78%]
Pressure (altimeter): 29.82 inches Hg (1010.0 mb)
Winds: from the SSW (200 degrees) at 12 MPH (10 knots; 5.1 m/s)
Visibility: 6 or more miles (10+ km)
Ceiling: 5000 feet AGL
Clouds: broken clouds at 5000 feet AGL
Weather: -TSRA  (light rain associated with thunderstorm(s))

METAR text: EDDN 181650Z 01005KT 9999 FEW050CB 28/17 Q1008 TEMPO 30020G40KT 4000 TSRA
Conditions at: EDDN (NUERNBERG , DE) observed 1650 UTC 18 August 2019
Temperature: 28.0°C (82°F)
Dewpoint: 17.0°C (63°F) [RH = 51%]
Pressure (altimeter): 29.76 inches Hg (1008.0 mb)
Winds: from the N (10 degrees) at 6 MPH (5 knots; 2.6 m/s)
Visibility: 6 or more miles (10+ km)
Ceiling: at least 12,000 feet AGL
Clouds: few clouds at 5000 feet AGL
Weather: no significant weather observed at this time

METAR text: EDDN 181620Z 29007KT 270V330 CAVOK 29/16 Q1009 NOSIG
Conditions at: EDDN (NUERNBERG , DE) observed 1620 UTC 18 August 2019
Temperature: 29.0°C (84°F)
Dewpoint: 16.0°C (61°F) [RH = 45%]
Pressure (altimeter): 29.79 inches Hg (1009.0 mb)
Winds: from the WNW (290 degrees) at 8 MPH (7 knots; 3.6 m/s)
Visibility: 6 or more miles (10+ km)
Ceiling: ceiling and visibility are OK
Clouds: unknown
Weather: no significant weather observed at this time

METAR text: EDDN 181550Z 27011KT CAVOK 30/15 Q1009 NOSIG
Conditions at: EDDN (NUERNBERG , DE) observed 1550 UTC 18 August 2019
Temperature: 30.0°C (86°F)
Dewpoint: 15.0°C (59°F) [RH = 40%]
Pressure (altimeter): 29.79 inches Hg (1009.0 mb)
Winds: from the W (270 degrees) at 13 MPH (11 knots; 5.7 m/s)
Visibility: 6 or more miles (10+ km)
Ceiling: ceiling and visibility are OK
Clouds: unknown
Weather: no significant weather observed at this time

METAR text: EDDN 181520Z 25008KT 200V280 CAVOK 31/16 Q1009 NOSIG
Conditions at: EDDN (NUERNBERG , DE) observed 1520 UTC 18 August 2019
Temperature: 31.0°C (88°F)
Dewpoint: 16.0°C (61°F) [RH = 40%]
Pressure (altimeter): 29.79 inches Hg (1009.0 mb)
Winds: from the WSW (250 degrees) at 9 MPH (8 knots; 4.1 m/s)
Visibility: 6 or more miles (10+ km)
Ceiling: ceiling and visibility are OK
Clouds: unknown
Weather: no significant weather observed at this time

METAR text: EDDN 181450Z 23008KT CAVOK 31/15 Q1009 NOSIG
Conditions at: EDDN (NUERNBERG , DE) observed 1450 UTC 18 August 2019
Temperature: 31.0°C (88°F)
Dewpoint: 15.0°C (59°F) [RH = 38%]
Pressure (altimeter): 29.79 inches Hg (1009.0 mb)
Winds: from the SW (230 degrees) at 9 MPH (8 knots; 4.1 m/s)
Visibility: 6 or more miles (10+ km)
Ceiling: ceiling and visibility are OK
Clouds: unknown
Weather: no significant weather observed at this time

METAR text: EDDN 181420Z 25011KT 220V280 CAVOK 31/15 Q1009 NOSIG
Conditions at: EDDN (NUERNBERG , DE) observed 1420 UTC 18 August 2019
Temperature: 31.0°C (88°F)
Dewpoint: 15.0°C (59°F) [RH = 38%]
Pressure (altimeter): 29.79 inches Hg (1009.0 mb)
Winds: from the WSW (250 degrees) at 13 MPH (11 knots; 5.7 m/s)
Visibility: 6 or more miles (10+ km)
Ceiling: ceiling and visibility are OK
Clouds: unknown
Weather: no significant weather observed at this time

METAR text: EDDN 181350Z 24010KT 180V270 CAVOK 31/16 Q1009 NOSIG
Conditions at: EDDN (NUERNBERG , DE) observed 1350 UTC 18 August 2019
Temperature: 31.0°C (88°F)
Dewpoint: 16.0°C (61°F) [RH = 40%]
Pressure (altimeter): 29.79 inches Hg (1009.0 mb)
Winds: from the WSW (240 degrees) at 12 MPH (10 knots; 5.1 m/s)
Visibility: 6 or more miles (10+ km)
Ceiling: ceiling and visibility are OK
Clouds: unknown
Weather: no significant weather observed at this time

METAR text: EDDN 181320Z 22009KT 190V270 CAVOK 30/15 Q1010 NOSIG
Conditions at: EDDN (NUERNBERG , DE) observed 1320 UTC 18 August 2019
Temperature: 30.0°C (86°F)
Dewpoint: 15.0°C (59°F) [RH = 40%]
Pressure (altimeter): 29.82 inches Hg (1010.0 mb)
Winds: from the SW (220 degrees) at 10 MPH (9 knots; 4.6 m/s)
Visibility: 6 or more miles (10+ km)
Ceiling: ceiling and visibility are OK
Clouds: unknown
Weather: no significant weather observed at this time

METAR text: EDDN 181250Z 21009KT 170V260 CAVOK 30/15 Q1010 NOSIG
Conditions at: EDDN (NUERNBERG , DE) observed 1250 UTC 18 August 2019
Temperature: 30.0°C (86°F)
Dewpoint: 15.0°C (59°F) [RH = 40%]
Pressure (altimeter): 29.82 inches Hg (1010.0 mb)
Winds: from the SSW (210 degrees) at 10 MPH (9 knots; 4.6 m/s)
Visibility: 6 or more miles (10+ km)
Ceiling: ceiling and visibility are OK
Clouds: unknown
Weather: no significant weather observed at this time

METAR text: EDDN 181220Z 23011KT 180V260 CAVOK 29/16 Q1010 NOSIG
Conditions at: EDDN (NUERNBERG , DE) observed 1220 UTC 18 August 2019
Temperature: 29.0°C (84°F)
Dewpoint: 16.0°C (61°F) [RH = 45%]
Pressure (altimeter): 29.82 inches Hg (1010.0 mb)
Winds: from the SW (230 degrees) at 13 MPH (11 knots; 5.7 m/s)
Visibility: 6 or more miles (10+ km)
Ceiling: ceiling and visibility are OK
Clouds: unknown
Weather: no significant weather observed at this time

METAR text: EDDN 181150Z 23008KT 170V270 CAVOK 29/16 Q1010 NOSIG
Conditions at: EDDN (NUERNBERG , DE) observed 1150 UTC 18 August 2019
Temperature: 29.0°C (84°F)
Dewpoint: 16.0°C (61°F) [RH = 45%]
Pressure (altimeter): 29.82 inches Hg (1010.0 mb)
Winds: from the SW (230 degrees) at 9 MPH (8 knots; 4.1 m/s)
Visibility: 6 or more miles (10+ km)
Ceiling: ceiling and visibility are OK
Clouds: unknown
Weather: no significant weather observed at this time

METAR text: EDDN 181120Z 25007KT 210V280 CAVOK 28/15 Q1010 NOSIG
Conditions at: EDDN (NUERNBERG , DE) observed 1120 UTC 18 August 2019
Temperature: 28.0°C (82°F)
Dewpoint: 15.0°C (59°F) [RH = 45%]
Pressure (altimeter): 29.82 inches Hg (1010.0 mb)
Winds: from the WSW (250 degrees) at 8 MPH (7 knots; 3.6 m/s)
Visibility: 6 or more miles (10+ km)
Ceiling: ceiling and visibility are OK
Clouds: unknown
Weather: no significant weather observed at this time

METAR text: EDDN 181050Z 22007KT 160V260 9999 FEW045 27/15 Q1010 NOSIG
Conditions at: EDDN (NUERNBERG , DE) observed 1050 UTC 18 August 2019
Temperature: 27.0°C (81°F)
Dewpoint: 15.0°C (59°F) [RH = 48%]
Pressure (altimeter): 29.82 inches Hg (1010.0 mb)
Winds: from the SW (220 degrees) at 8 MPH (7 knots; 3.6 m/s)
Visibility: 6 or more miles (10+ km)
Ceiling: at least 12,000 feet AGL
Clouds: few clouds at 4500 feet AGL
Weather: no significant weather observed at this time

METAR text: EDDN 181020Z 21008KT 170V260 9999 FEW040 27/16 Q1011 NOSIG
Conditions at: EDDN (NUERNBERG , DE) observed 1020 UTC 18 August 2019
Temperature: 27.0°C (81°F)
Dewpoint: 16.0°C (61°F) [RH = 51%]
Pressure (altimeter): 29.85 inches Hg (1011.0 mb)
Winds: from the SSW (210 degrees) at 9 MPH (8 knots; 4.1 m/s)
Visibility: 6 or more miles (10+ km)
Ceiling: at least 12,000 feet AGL
Clouds: few clouds at 4000 feet AGL
Weather: no significant weather observed at this time

METAR text: EDDN 180950Z 21007KT 9999 FEW040 26/17 Q1011 NOSIG
Conditions at: EDDN (NUERNBERG , DE) observed 0950 UTC 18 August 2019
Temperature: 26.0°C (79°F)
Dewpoint: 17.0°C (63°F) [RH = 58%]
Pressure (altimeter): 29.85 inches Hg (1011.0 mb)
Winds: from the SSW (210 degrees) at 8 MPH (7 knots; 3.6 m/s)
Visibility: 6 or more miles (10+ km)
Ceiling: at least 12,000 feet AGL
Clouds: few clouds at 4000 feet AGL
Weather: no significant weather observed at this time

METAR text: EDDN 180920Z 24009KT 210V270 9999 FEW037 26/16 Q1011 NOSIG
Conditions at: EDDN (NUERNBERG , DE) observed 0920 UTC 18 August 2019
Temperature: 26.0°C (79°F)
Dewpoint: 16.0°C (61°F) [RH = 54%]
Pressure (altimeter): 29.85 inches Hg (1011.0 mb)
Winds: from the WSW (240 degrees) at 10 MPH (9 knots; 4.6 m/s)
Visibility: 6 or more miles (10+ km)
Ceiling: at least 12,000 feet AGL
Clouds: few clouds at 3700 feet AGL
Weather: no significant weather observed at this time

METAR text: EDDN 180850Z VRB07KT 9999 FEW037 25/16 Q1011 NOSIG
Conditions at: EDDN (NUERNBERG , DE) observed 0850 UTC 18 August 2019
Temperature: 25.0°C (77°F)
Dewpoint: 16.0°C (61°F) [RH = 57%]
Pressure (altimeter): 29.85 inches Hg (1011.0 mb)
Winds: variable direction winds at 8 MPH (7 knots; 3.6 m/s)
Visibility: 6 or more miles (10+ km)
Ceiling: at least 12,000 feet AGL
Clouds: few clouds at 3700 feet AGL
Weather: no significant weather observed at this time

METAR text: EDDN 180820Z 21007KT 170V240 CAVOK 24/16 Q1011 NOSIG
Conditions at: EDDN (NUERNBERG , DE) observed 0820 UTC 18 August 2019
Temperature: 24.0°C (75°F)
Dewpoint: 16.0°C (61°F) [RH = 61%]
Pressure (altimeter): 29.85 inches Hg (1011.0 mb)
Winds: from the SSW (210 degrees) at 8 MPH (7 knots; 3.6 m/s)
Visibility: 6 or more miles (10+ km)
Ceiling: ceiling and visibility are OK
Clouds: unknown
Weather: no significant weather observed at this time

METAR text: EDDN 180750Z 20008KT 170V230 CAVOK 23/16 Q1011 NOSIG
Conditions at: EDDN (NUERNBERG , DE) observed 0750 UTC 18 August 2019
Temperature: 23.0°C (73°F)
Dewpoint: 16.0°C (61°F) [RH = 65%]
Pressure (altimeter): 29.85 inches Hg (1011.0 mb)
Winds: from the SSW (200 degrees) at 9 MPH (8 knots; 4.1 m/s)
Visibility: 6 or more miles (10+ km)
Ceiling: ceiling and visibility are OK
Clouds: unknown
Weather: no significant weather observed at this time

METAR text: EDDN 180720Z 19007KT 170V230 CAVOK 22/15 Q1011 NOSIG
Conditions at: EDDN (NUERNBERG , DE) observed 0720 UTC 18 August 2019
Temperature: 22.0°C (72°F)
Dewpoint: 15.0°C (59°F) [RH = 65%]
Pressure (altimeter): 29.85 inches Hg (1011.0 mb)
Winds: from the S (190 degrees) at 8 MPH (7 knots; 3.6 m/s)
Visibility: 6 or more miles (10+ km)
Ceiling: ceiling and visibility are OK
Clouds: unknown
Weather: no significant weather observed at this time

METAR text: EDDN 180650Z 17009KT CAVOK 20/15 Q1011 NOSIG
Conditions at: EDDN (NUERNBERG , DE) observed 0650 UTC 18 August 2019
Temperature: 20.0°C (68°F)
Dewpoint: 15.0°C (59°F) [RH = 73%]
Pressure (altimeter): 29.85 inches Hg (1011.0 mb)
Winds: from the S (170 degrees) at 10 MPH (9 knots; 4.6 m/s)
Visibility: 6 or more miles (10+ km)
Ceiling: ceiling and visibility are OK
Clouds: unknown
Weather: no significant weather observed at this time

METAR text: EDDN 180620Z 16007KT CAVOK 19/14 Q1011 NOSIG
Conditions at: EDDN (NUERNBERG , DE) observed 0620 UTC 18 August 2019
Temperature: 19.0°C (66°F)
Dewpoint: 14.0°C (57°F) [RH = 73%]
Pressure (altimeter): 29.85 inches Hg (1011.0 mb)
Winds: from the SSE (160 degrees) at 8 MPH (7 knots; 3.6 m/s)
Visibility: 6 or more miles (10+ km)
Ceiling: ceiling and visibility are OK
Clouds: unknown
Weather: no significant weather observed at this time

METAR text: EDDN 180550Z 15007KT CAVOK 18/14 Q1011 NOSIG
Conditions at: EDDN (NUERNBERG , DE) observed 0550 UTC 18 August 2019
Temperature: 18.0°C (64°F)
Dewpoint: 14.0°C (57°F) [RH = 77%]
Pressure (altimeter): 29.85 inches Hg (1011.0 mb)
Winds: from the SSE (150 degrees) at 8 MPH (7 knots; 3.6 m/s)
Visibility: 6 or more miles (10+ km)
Ceiling: ceiling and visibility are OK
Clouds: unknown
Weather: no significant weather observed at this time

METAR text: EDDN 180520Z 15007KT CAVOK 18/14 Q1011 NOSIG
Conditions at: EDDN (NUERNBERG , DE) observed 0520 UTC 18 August 2019
Temperature: 18.0°C (64°F)
Dewpoint: 14.0°C (57°F) [RH = 77%]
Pressure (altimeter): 29.85 inches Hg (1011.0 mb)
Winds: from the SSE (150 degrees) at 8 MPH (7 knots; 3.6 m/s)
Visibility: 6 or more miles (10+ km)
Ceiling: ceiling and visibility are OK
Clouds: unknown
Weather: no significant weather observed at this time

METAR text: EDDN 180450Z 17005KT CAVOK 17/14 Q1011 NOSIG
Conditions at: EDDN (NUERNBERG , DE) observed 0450 UTC 18 August 2019
Temperature: 17.0°C (63°F)
Dewpoint: 14.0°C (57°F) [RH = 82%]
Pressure (altimeter): 29.85 inches Hg (1011.0 mb)
Winds: from the S (170 degrees) at 6 MPH (5 knots; 2.6 m/s)
Visibility: 6 or more miles (10+ km)
Ceiling: ceiling and visibility are OK
Clouds: unknown
Weather: no significant weather observed at this time

METAR text: EDDN 180420Z 14005KT CAVOK 17/14 Q1011 NOSIG
Conditions at: EDDN (NUERNBERG , DE) observed 0420 UTC 18 August 2019
Temperature: 17.0°C (63°F)
Dewpoint: 14.0°C (57°F) [RH = 82%]
Pressure (altimeter): 29.85 inches Hg (1011.0 mb)
Winds: from the SE (140 degrees) at 6 MPH (5 knots; 2.6 m/s)
Visibility: 6 or more miles (10+ km)
Ceiling: ceiling and visibility are OK
Clouds: unknown
Weather: no significant weather observed at this time

METAR text: EDDN 180350Z 13008KT CAVOK 17/15 Q1011
Conditions at: EDDN (NUERNBERG , DE) observed 0350 UTC 18 August 2019
Temperature: 17.0°C (63°F)
Dewpoint: 15.0°C (59°F) [RH = 88%]
Pressure (altimeter): 29.85 inches Hg (1011.0 mb)
Winds: from the SE (130 degrees) at 9 MPH (8 knots; 4.1 m/s)
Visibility: 6 or more miles (10+ km)
Ceiling: ceiling and visibility are OK
Clouds: unknown
Weather: no significant weather observed at this time

METAR text: EDDN 180320Z 13005KT CAVOK 16/15 Q1011
Conditions at: EDDN (NUERNBERG , DE) observed 0320 UTC 18 August 2019
Temperature: 16.0°C (61°F)
Dewpoint: 15.0°C (59°F) [RH = 94%]
Pressure (altimeter): 29.85 inches Hg (1011.0 mb)
Winds: from the SE (130 degrees) at 6 MPH (5 knots; 2.6 m/s)
Visibility: 6 or more miles (10+ km)
Ceiling: ceiling and visibility are OK
Clouds: unknown
Weather: no significant weather observed at this time

METAR text: EDDN 180250Z 13006KT CAVOK 17/15 Q1011
Conditions at: EDDN (NUERNBERG , DE) observed 0250 UTC 18 August 2019
Temperature: 17.0°C (63°F)
Dewpoint: 15.0°C (59°F) [RH = 88%]
Pressure (altimeter): 29.85 inches Hg (1011.0 mb)
Winds: from the SE (130 degrees) at 7 MPH (6 knots; 3.1 m/s)
Visibility: 6 or more miles (10+ km)
Ceiling: ceiling and visibility are OK
Clouds: unknown
Weather: no significant weather observed at this time

METAR text: EDDN 180220Z 14006KT CAVOK 16/15 Q1011
Conditions at: EDDN (NUERNBERG , DE) observed 0220 UTC 18 August 2019
Temperature: 16.0°C (61°F)
Dewpoint: 15.0°C (59°F) [RH = 94%]
Pressure (altimeter): 29.85 inches Hg (1011.0 mb)
Winds: from the SE (140 degrees) at 7 MPH (6 knots; 3.1 m/s)
Visibility: 6 or more miles (10+ km)
Ceiling: ceiling and visibility are OK
Clouds: unknown
Weather: no significant weather observed at this time

METAR text: EDDN 180150Z 11007KT CAVOK 16/14 Q1012
Conditions at: EDDN (NUERNBERG , DE) observed 0150 UTC 18 August 2019
Temperature: 16.0°C (61°F)
Dewpoint: 14.0°C (57°F) [RH = 88%]
Pressure (altimeter): 29.88 inches Hg (1012.0 mb)
Winds: from the ESE (110 degrees) at 8 MPH (7 knots; 3.6 m/s)
Visibility: 6 or more miles (10+ km)
Ceiling: ceiling and visibility are OK
Clouds: unknown
Weather: no significant weather observed at this time

METAR text: EDDN 180120Z 12005KT 9999 FEW040 16/14 Q1012
Conditions at: EDDN (NUERNBERG , DE) observed 0120 UTC 18 August 2019
Temperature: 16.0°C (61°F)
Dewpoint: 14.0°C (57°F) [RH = 88%]
Pressure (altimeter): 29.88 inches Hg (1012.0 mb)
Winds: from the ESE (120 degrees) at 6 MPH (5 knots; 2.6 m/s)
Visibility: 6 or more miles (10+ km)
Ceiling: at least 12,000 feet AGL
Clouds: few clouds at 4000 feet AGL
Weather: no significant weather observed at this time

METAR text: EDDN 180050Z 13006KT 9999 FEW040 17/15 Q1012
Conditions at: EDDN (NUERNBERG , DE) observed 0050 UTC 18 August 2019
Temperature: 17.0°C (63°F)
Dewpoint: 15.0°C (59°F) [RH = 88%]
Pressure (altimeter): 29.88 inches Hg (1012.0 mb)
Winds: from the SE (130 degrees) at 7 MPH (6 knots; 3.1 m/s)
Visibility: 6 or more miles (10+ km)
Ceiling: at least 12,000 feet AGL
Clouds: few clouds at 4000 feet AGL
Weather: no significant weather observed at this time

METAR text: EDDN 180020Z 14005KT 9999 SCT040 17/15 Q1012
Conditions at: EDDN (NUERNBERG , DE) observed 0020 UTC 18 August 2019
Temperature: 17.0°C (63°F)
Dewpoint: 15.0°C (59°F) [RH = 88%]
Pressure (altimeter): 29.88 inches Hg (1012.0 mb)
Winds: from the SE (140 degrees) at 6 MPH (5 knots; 2.6 m/s)
Visibility: 6 or more miles (10+ km)
Ceiling: at least 12,000 feet AGL
Clouds: scattered clouds at 4000 feet AGL
Weather: no significant weather observed at this time

METAR text: EDDN 172350Z 16005KT 090V200 9999 -RA BKN040 17/15 Q1013
Conditions at: EDDN (NUERNBERG , DE) observed 2350 UTC 17 August 2019
Temperature: 17.0°C (63°F)
Dewpoint: 15.0°C (59°F) [RH = 88%]
Pressure (altimeter): 29.91 inches Hg (1013.0 mb)
Winds: from the SSE (160 degrees) at 6 MPH (5 knots; 2.6 m/s)
Visibility: 6 or more miles (10+ km)
Ceiling: 4000 feet AGL
Clouds: broken clouds at 4000 feet AGL
Weather: -RA  (light rain)

METAR text: EDDN 172320Z 14004KT 100V190 9999 BKN040 17/15 Q1013
Conditions at: EDDN (NUERNBERG , DE) observed 2320 UTC 17 August 2019
Temperature: 17.0°C (63°F)
Dewpoint: 15.0°C (59°F) [RH = 88%]
Pressure (altimeter): 29.91 inches Hg (1013.0 mb)
Winds: from the SE (140 degrees) at 5 MPH (4 knots; 2.1 m/s)
Visibility: 6 or more miles (10+ km)
Ceiling: 4000 feet AGL
Clouds: broken clouds at 4000 feet AGL
Weather: no significant weather observed at this time

METAR text: EDDN 172250Z 14005KT 9999 SCT035 BKN048 17/15 Q1013
Conditions at: EDDN (NUERNBERG , DE) observed 2250 UTC 17 August 2019
Temperature: 17.0°C (63°F)
Dewpoint: 15.0°C (59°F) [RH = 88%]
Pressure (altimeter): 29.91 inches Hg (1013.0 mb)
Winds: from the SE (140 degrees) at 6 MPH (5 knots; 2.6 m/s)
Visibility: 6 or more miles (10+ km)
Ceiling: 4800 feet AGL
Clouds: scattered clouds at 3500 feet AGL
broken clouds at 4800 feet AGL
Weather: no significant weather observed at this time

METAR text: EDDN 172220Z 15005KT 9999 BKN037 17/15 Q1013
Conditions at: EDDN (NUERNBERG , DE) observed 2220 UTC 17 August 2019
Temperature: 17.0°C (63°F)
Dewpoint: 15.0°C (59°F) [RH = 88%]
Pressure (altimeter): 29.91 inches Hg (1013.0 mb)
Winds: from the SSE (150 degrees) at 6 MPH (5 knots; 2.6 m/s)
Visibility: 6 or more miles (10+ km)
Ceiling: 3700 feet AGL
Clouds: broken clouds at 3700 feet AGL
Weather: no significant weather observed at this time

METAR text: EDDN 172150Z 25004KT 220V280 9999 BKN035 18/15 Q1014
Conditions at: EDDN (NUERNBERG , DE) observed 2150 UTC 17 August 2019
Temperature: 18.0°C (64°F)
Dewpoint: 15.0°C (59°F) [RH = 83%]
Pressure (altimeter): 29.94 inches Hg (1014.0 mb)
Winds: from the WSW (250 degrees) at 5 MPH (4 knots; 2.1 m/s)
Visibility: 6 or more miles (10+ km)
Ceiling: 3500 feet AGL
Clouds: broken clouds at 3500 feet AGL
Weather: no significant weather observed at this time

METAR text: EDDN 172120Z 22006KT 9999 BKN035 18/15 Q1014
Conditions at: EDDN (NUERNBERG , DE) observed 2120 UTC 17 August 2019
Temperature: 18.0°C (64°F)
Dewpoint: 15.0°C (59°F) [RH = 83%]
Pressure (altimeter): 29.94 inches Hg (1014.0 mb)
Winds: from the SW (220 degrees) at 7 MPH (6 knots; 3.1 m/s)
Visibility: 6 or more miles (10+ km)
Ceiling: 3500 feet AGL
Clouds: broken clouds at 3500 feet AGL
Weather: no significant weather observed at this time

METAR text: EDDN 172050Z 21006KT 180V260 9999 SCT033 SCT045 18/15 Q1013
Conditions at: EDDN (NUERNBERG , DE) observed 2050 UTC 17 August 2019
Temperature: 18.0°C (64°F)
Dewpoint: 15.0°C (59°F) [RH = 83%]
Pressure (altimeter): 29.91 inches Hg (1013.0 mb)
Winds: from the SSW (210 degrees) at 7 MPH (6 knots; 3.1 m/s)
Visibility: 6 or more miles (10+ km)
Ceiling: at least 12,000 feet AGL
Clouds: scattered clouds at 3300 feet AGL
scattered clouds at 4500 feet AGL
Weather: no significant weather observed at this time

METAR text: EDDN 172020Z 21003KT 9999 -RA SCT045 18/15 Q1014
Conditions at: EDDN (NUERNBERG , DE) observed 2020 UTC 17 August 2019
Temperature: 18.0°C (64°F)
Dewpoint: 15.0°C (59°F) [RH = 83%]
Pressure (altimeter): 29.94 inches Hg (1014.0 mb)
Winds: from the SSW (210 degrees) at 3 MPH (3 knots; 1.5 m/s)
Visibility: 6 or more miles (10+ km)
Ceiling: at least 12,000 feet AGL
Clouds: scattered clouds at 4500 feet AGL
Weather: -RA  (light rain)

METAR text: EDDN 171950Z 26004KT 9999 -RA SCT040 19/15 Q1014 NOSIG
Conditions at: EDDN (NUERNBERG , DE) observed 1950 UTC 17 August 2019
Temperature: 19.0°C (66°F)
Dewpoint: 15.0°C (59°F) [RH = 78%]
Pressure (altimeter): 29.94 inches Hg (1014.0 mb)
Winds: from the W (260 degrees) at 5 MPH (4 knots; 2.1 m/s)
Visibility: 6 or more miles (10+ km)
Ceiling: at least 12,000 feet AGL
Clouds: scattered clouds at 4000 feet AGL
Weather: -RA  (light rain)

METAR text: EDDN 171920Z 25006KT 230V290 9999 -RA SCT033 19/15 Q1014 NOSIG
Conditions at: EDDN (NUERNBERG , DE) observed 1920 UTC 17 August 2019
Temperature: 19.0°C (66°F)
Dewpoint: 15.0°C (59°F) [RH = 78%]
Pressure (altimeter): 29.94 inches Hg (1014.0 mb)
Winds: from the WSW (250 degrees) at 7 MPH (6 knots; 3.1 m/s)
Visibility: 6 or more miles (10+ km)
Ceiling: at least 12,000 feet AGL
Clouds: scattered clouds at 3300 feet AGL
Weather: -RA  (light rain)

METAR text: EDDN 171850Z VRB01KT 9999 -RA FEW033 BKN048 18/17 Q1014 NOSIG
Conditions at: EDDN (NUERNBERG , DE) observed 1850 UTC 17 August 2019
Temperature: 18.0°C (64°F)
Dewpoint: 17.0°C (63°F) [RH = 94%]
Pressure (altimeter): 29.94 inches Hg (1014.0 mb)
Winds: variable direction winds at 1 MPH (1 knots; 0.5 m/s)
Visibility: 6 or more miles (10+ km)
Ceiling: 4800 feet AGL
Clouds: few clouds at 3300 feet AGL
broken clouds at 4800 feet AGL
Weather: -RA  (light rain)

METAR text: EDDN 171820Z VRB01KT 9999 SCT035 19/16 Q1013 NOSIG
Conditions at: EDDN (NUERNBERG , DE) observed 1820 UTC 17 August 2019
Temperature: 19.0°C (66°F)
Dewpoint: 16.0°C (61°F) [RH = 83%]
Pressure (altimeter): 29.91 inches Hg (1013.0 mb)
Winds: variable direction winds at 1 MPH (1 knots; 0.5 m/s)
Visibility: 6 or more miles (10+ km)
Ceiling: at least 12,000 feet AGL
Clouds: scattered clouds at 3500 feet AGL
Weather: no significant weather observed at this time

METAR text: EDDN 171750Z VRB02KT 9999 -RA FEW036 21/14 Q1013 NOSIG
Conditions at: EDDN (NUERNBERG , DE) observed 1750 UTC 17 August 2019
Temperature: 21.0°C (70°F)
Dewpoint: 14.0°C (57°F) [RH = 64%]
Pressure (altimeter): 29.91 inches Hg (1013.0 mb)
Winds: variable direction winds at 2 MPH (2 knots; 1.0 m/s)
Visibility: 6 or more miles (10+ km)
Ceiling: at least 12,000 feet AGL
Clouds: few clouds at 3600 feet AGL
Weather: -RA  (light rain)

METAR text: EDDN 171720Z 20003KT 180V240 9999 -RA NSC 21/13 Q1013 NOSIG
Conditions at: EDDN (NUERNBERG , DE) observed 1720 UTC 17 August 2019
Temperature: 21.0°C (70°F)
Dewpoint: 13.0°C (55°F) [RH = 60%]
Pressure (altimeter): 29.91 inches Hg (1013.0 mb)
Winds: from the SSW (200 degrees) at 3 MPH (3 knots; 1.5 m/s)
Visibility: 6 or more miles (10+ km)
Ceiling: at least 12,000 feet AGL
Clouds: sky clear below 12,000 feet AGL
Weather: -RA  (light rain)

METAR text: EDDN 171650Z VRB02KT 9999 -RA FEW035 21/13 Q1013 NOSIG
Conditions at: EDDN (NUERNBERG , DE) observed 1650 UTC 17 August 2019
Temperature: 21.0°C (70°F)
Dewpoint: 13.0°C (55°F) [RH = 60%]
Pressure (altimeter): 29.91 inches Hg (1013.0 mb)
Winds: variable direction winds at 2 MPH (2 knots; 1.0 m/s)
Visibility: 6 or more miles (10+ km)
Ceiling: at least 12,000 feet AGL
Clouds: few clouds at 3500 feet AGL
Weather: -RA  (light rain)

METAR text: EDDN 171620Z 29004KT 250V340 9999 -RA FEW027 21/14 Q1013 NOSIG
Conditions at: EDDN (NUERNBERG , DE) observed 1620 UTC 17 August 2019
Temperature: 21.0°C (70°F)
Dewpoint: 14.0°C (57°F) [RH = 64%]
Pressure (altimeter): 29.91 inches Hg (1013.0 mb)
Winds: from the WNW (290 degrees) at 5 MPH (4 knots; 2.1 m/s)
Visibility: 6 or more miles (10+ km)
Ceiling: at least 12,000 feet AGL
Clouds: few clouds at 2700 feet AGL
Weather: -RA  (light rain)

METAR text: EDDN 171550Z 29003KT 9999 FEW017 21/14 Q1014 NOSIG
Conditions at: EDDN (NUERNBERG , DE) observed 1550 UTC 17 August 2019
Temperature: 21.0°C (70°F)
Dewpoint: 14.0°C (57°F) [RH = 64%]
Pressure (altimeter): 29.94 inches Hg (1014.0 mb)
Winds: from the WNW (290 degrees) at 3 MPH (3 knots; 1.5 m/s)
Visibility: 6 or more miles (10+ km)
Ceiling: at least 12,000 feet AGL
Clouds: few clouds at 1700 feet AGL
Weather: no significant weather observed at this time

METAR text: EDDN 171520Z 25004KT 9999 -RA FEW046 22/12 Q1014 NOSIG
Conditions at: EDDN (NUERNBERG , DE) observed 1520 UTC 17 August 2019
Temperature: 22.0°C (72°F)
Dewpoint: 12.0°C (54°F) [RH = 53%]
Pressure (altimeter): 29.94 inches Hg (1014.0 mb)
Winds: from the WSW (250 degrees) at 5 MPH (4 knots; 2.1 m/s)
Visibility: 6 or more miles (10+ km)
Ceiling: at least 12,000 feet AGL
Clouds: few clouds at 4600 feet AGL
Weather: -RA  (light rain)

METAR text: EDDN 171450Z 24006KT CAVOK 22/11 Q1013 NOSIG
Conditions at: EDDN (NUERNBERG , DE) observed 1450 UTC 17 August 2019
Temperature: 22.0°C (72°F)
Dewpoint: 11.0°C (52°F) [RH = 50%]
Pressure (altimeter): 29.91 inches Hg (1013.0 mb)
Winds: from the WSW (240 degrees) at 7 MPH (6 knots; 3.1 m/s)
Visibility: 6 or more miles (10+ km)
Ceiling: ceiling and visibility are OK
Clouds: unknown
Weather: no significant weather observed at this time

METAR text: EDDN 171420Z 22009KT 190V260 CAVOK 23/11 Q1013 NOSIG
Conditions at: EDDN (NUERNBERG , DE) observed 1420 UTC 17 August 2019
Temperature: 23.0°C (73°F)
Dewpoint: 11.0°C (52°F) [RH = 47%]
Pressure (altimeter): 29.91 inches Hg (1013.0 mb)
Winds: from the SW (220 degrees) at 10 MPH (9 knots; 4.6 m/s)
Visibility: 6 or more miles (10+ km)
Ceiling: ceiling and visibility are OK
Clouds: unknown
Weather: no significant weather observed at this time

METAR text: EDDN 171350Z 22007KT CAVOK 23/13 Q1013 NOSIG
Conditions at: EDDN (NUERNBERG , DE) observed 1350 UTC 17 August 2019
Temperature: 23.0°C (73°F)
Dewpoint: 13.0°C (55°F) [RH = 53%]
Pressure (altimeter): 29.91 inches Hg (1013.0 mb)
Winds: from the SW (220 degrees) at 8 MPH (7 knots; 3.6 m/s)
Visibility: 6 or more miles (10+ km)
Ceiling: ceiling and visibility are OK
Clouds: unknown
Weather: no significant weather observed at this time

METAR text: EDDN 171320Z 21008KT 170V240 CAVOK 23/12 Q1013 NOSIG
Conditions at: EDDN (NUERNBERG , DE) observed 1320 UTC 17 August 2019
Temperature: 23.0°C (73°F)
Dewpoint: 12.0°C (54°F) [RH = 50%]
Pressure (altimeter): 29.91 inches Hg (1013.0 mb)
Winds: from the SSW (210 degrees) at 9 MPH (8 knots; 4.1 m/s)
Visibility: 6 or more miles (10+ km)
Ceiling: ceiling and visibility are OK
Clouds: unknown
Weather: no significant weather observed at this time

METAR text: EDDN 171250Z 20006KT 170V240 CAVOK 23/13 Q1014 NOSIG
Conditions at: EDDN (NUERNBERG , DE) observed 1250 UTC 17 August 2019
Temperature: 23.0°C (73°F)
Dewpoint: 13.0°C (55°F) [RH = 53%]
Pressure (altimeter): 29.94 inches Hg (1014.0 mb)
Winds: from the SSW (200 degrees) at 7 MPH (6 knots; 3.1 m/s)
Visibility: 6 or more miles (10+ km)
Ceiling: ceiling and visibility are OK
Clouds: unknown
Weather: no significant weather observed at this time

METAR text: EDDN 171220Z 20008KT 160V220 CAVOK 23/14 Q1014 NOSIG
Conditions at: EDDN (NUERNBERG , DE) observed 1220 UTC 17 August 2019
Temperature: 23.0°C (73°F)
Dewpoint: 14.0°C (57°F) [RH = 57%]
Pressure (altimeter): 29.94 inches Hg (1014.0 mb)
Winds: from the SSW (200 degrees) at 9 MPH (8 knots; 4.1 m/s)
Visibility: 6 or more miles (10+ km)
Ceiling: ceiling and visibility are OK
Clouds: unknown
Weather: no significant weather observed at this time

METAR text: EDDN 171150Z 18009KT 150V220 CAVOK 23/14 Q1014 NOSIG
Conditions at: EDDN (NUERNBERG , DE) observed 1150 UTC 17 August 2019
Temperature: 23.0°C (73°F)
Dewpoint: 14.0°C (57°F) [RH = 57%]
Pressure (altimeter): 29.94 inches Hg (1014.0 mb)
Winds: from the S (180 degrees) at 10 MPH (9 knots; 4.6 m/s)
Visibility: 6 or more miles (10+ km)
Ceiling: ceiling and visibility are OK
Clouds: unknown
Weather: no significant weather observed at this time

METAR text: EDDN 171120Z 18006KT 160V220 9999 -RA FEW045 22/13 Q1014 NOSIG
Conditions at: EDDN (NUERNBERG , DE) observed 1120 UTC 17 August 2019
Temperature: 22.0°C (72°F)
Dewpoint: 13.0°C (55°F) [RH = 57%]
Pressure (altimeter): 29.94 inches Hg (1014.0 mb)
Winds: from the S (180 degrees) at 7 MPH (6 knots; 3.1 m/s)
Visibility: 6 or more miles (10+ km)
Ceiling: at least 12,000 feet AGL
Clouds: few clouds at 4500 feet AGL
Weather: -RA  (light rain)

Forecast for: EDDN (NUERNBERG , DE)
Text: TAF EDDN 181700Z 1818/1918 29005KT CAVOK
Forecast period: 1800 UTC 18 August 2019 to 1600 UTC 19 August 2019
Forecast type: FROM: standard forecast or significant change
Winds: from the WNW (290 degrees) at 6 MPH (5 knots; 2.6 m/s)
Visibility: 6 or more miles 10+ km)
Ceiling: unknown
Clouds: missing
Weather: NSW  (no significant weather)
Text: PROB40
Forecast period: 1800 to 2300 UTC 18 August 2019
Forecast type: TEMPORARY: The following changes expected for less than half the time period
Winds: from the WNW (300 degrees) at 23 MPH (20 knots; 10.3 m/s)
gusting to 46 MPH (40 knots; 20.6 m/s)
Visibility: 2.49 miles (4.01 km)
Ceiling: 3000 feet AGL
Clouds: broken clouds at 3000 feet AGL
Weather: TSRA  (rain associated with thunderstorm(s))
Text: TEMPO 1818/1823 30020G40KT 4000 TSRA BKN030CB
Forecast period: 2300 UTC 18 August 2019 to 0700 UTC 19 August 2019
Forecast type: TEMPORARY: The following changes expected for less than half the time period
Visibility: missing
Ceiling: 1200 feet AGL
Clouds: broken clouds at 1200 feet AGL
Weather: RA  (moderate rain)
Text: TEMPO 1823/1907 RA BKN012
Forecast period: 0700 to 1000 UTC 19 August 2019
Forecast type: TEMPORARY: The following changes expected for less than half the time period
Visibility: missing
Ceiling: 1200 feet AGL
Clouds: broken clouds at 1200 feet AGL
Weather: no significant weather forecast for this period
Text: TEMPO 1907/1910 BKN012
Forecast period: 1600 to 1800 UTC 19 August 2019
Forecast type: BECOMING: Conditions expected to become as follows by 1800 UTC 19 August 2019
Winds: variable direction winds at 2 MPH (2 knots; 1.0 m/s)
Visibility: 6 or more miles 10+ km)
Ceiling: unknown
Clouds: missing
Weather: NSW  (no significant weather)